Mineral, Washington
Current Conditions -  °F | °C
As of 6:34 AM on Friday 24 Oct 2014 (Local Time) from KGRF Reporting Station
Drizzle Drizzle  
Wind Chill: 45°   Ceiling: Unl
Heat Index: 45°   Visibility: 6mi
Dew Point: 45°   Wind: 2mph
Humidity: 100%   Direction: 80°E
Pressure: 30.02"   Gusts: NA
Location:  46.72°N, 122.18°W
Report Text: KGRF 241334Z AUTO 08002KT 6SM R15/5500FT DZ BR CLR 07/07 A3002 RMK AO2
Loading
Personal Weather Stations






























Interactive Weather Map
Tropical Storm Tracking
New forecast layout! Learn more

10-Day Weather Forecast

Advertisements
Track Severe Weather on mobile